Time;durP1;ratioP1;P1;durP2;ratioP2;P2;SDS_P1;SDS_P2;PMS_P1;PMS_P2;Temp;Humidity;BMP_temperature;BMP_pressure;BME280_temperature;BME280_humidity;BME280_pressure;Samples;Min_cycle;Max_cycle;Signal;HPM_P1;HPM_P2
2023/06/15 00:00:13;;;;;;;6.57;3.53;;;;;;;19.34;46.04;95463.47;6125098;23;20167;-90
2023/06/15 00:08:47;;;;;;;4.22;3.25;;;;;;;19.36;46.60;95465.84;6122436;23;20651;-89
2023/06/15 00:11:20;;;;;;;5.97;3.95;;;;;;;19.34;46.82;95473.91;6124577;23;20498;-89
2023/06/15 00:13:49;;;;;;;5.10;3.60;;;;;;;19.28;47.02;95467.78;6124225;23;20219;-90
2023/06/15 00:16:30;;;;;;;;;;;;;;;;;;;;;
2023/06/15 00:22:14;;;;;;;4.55;3.30;;;;;;;19.22;47.04;95473.97;6124389;23;20167;-90
2023/06/15 00:25:19;;;;;;;4.10;3.63;;;;;;;19.23;47.39;95466.94;6125032;23;20250;-90
2023/06/15 00:27:53;;;;;;;4.50;3.47;;;;;;;19.13;47.63;95475.34;6122451;23;20638;-89
2023/06/15 00:30:23;;;;;;;3.90;3.50;;;;;;;19.18;47.16;95477.28;6125084;23;20163;-90
2023/06/15 00:33:06;;;;;;;4.30;3.38;;;;;;;19.16;47.42;95480.13;6124857;23;20291;-89
2023/06/15 00:35:52;;;;;;;4.45;3.75;;;;;;;19.20;47.63;95476.03;6124317;23;20171;-90
2023/06/15 00:38:24;;;;;;;4.20;3.55;;;;;;;19.26;47.49;95477.69;6124108;23;20151;-90
2023/06/15 00:40:58;;;;;;;5.25;3.55;;;;;;;19.27;47.31;95483.69;6124420;23;20167;-90
2023/06/15 00:43:25;;;;;;;6.13;3.92;;;;;;;19.30;47.13;95484.03;6123978;23;20196;-89
2023/06/15 00:46:03;;;;;;;4.75;3.25;;;;;;;19.30;47.18;95481.41;6123784;23;20195;-90
2023/06/15 00:48:36;;;;;;;6.03;3.60;;;;;;;19.25;47.47;95486.53;6123952;23;20163;-90
2023/06/15 00:51:13;;;;;;;4.15;3.75;;;;;;;19.28;47.36;95488.69;6123756;23;20180;-90
2023/06/15 00:53:53;;;;;;;4.07;3.67;;;;;;;19.20;48.09;95488.28;6123113;23;20671;-89
2023/06/15 00:56:44;;;;;;;4.68;3.75;;;;;;;19.15;48.30;95499.41;6124869;23;20525;-89
2023/06/15 00:59:29;;;;;;;4.40;3.58;;;;;;;18.90;49.03;95499.69;6124551;23;20203;-89
2023/06/15 01:02:12;;;;;;;4.25;3.85;;;;;;;18.68;49.81;95496.09;6124405;23;20230;-90
2023/06/15 01:04:45;;;;;;;4.30;3.85;;;;;;;18.61;49.57;95498.03;6124444;23;20202;-89
2023/06/15 01:07:28;;;;;;;5.15;3.55;;;;;;;18.68;50.07;95498.69;6123999;23;20612;-89
2023/06/15 01:10:16;;;;;;;5.95;3.58;;;;;;;18.71;50.07;95500.06;6124878;23;20242;-89
2023/06/15 01:13:04;;;;;;;5.93;3.80;;;;;;;18.57;49.71;95492.47;6124286;23;20279;-89
2023/06/15 01:16:01;;;;;;;6.05;3.90;;;;;;;18.46;50.22;95489.88;6124240;23;20178;-89
2023/06/15 01:18:46;;;;;;;3.92;3.40;;;;;;;18.44;50.65;95499.72;6125369;23;20183;-89
2023/06/15 01:21:15;;;;;;;5.43;3.50;;;;;;;18.50;50.08;95490.97;6127768;23;20187;-89
2023/06/15 01:24:31;;;;;;;4.53;3.80;;;;;;;18.65;50.24;95493.16;6128040;23;20201;-90
2023/06/15 01:27:11;;;;;;;4.05;3.63;;;;;;;18.70;49.94;95488.84;6126615;23;20174;-90
2023/06/15 01:29:49;;;;;;;5.75;3.88;;;;;;;18.76;49.99;95484.53;6125450;23;20175;-89
2023/06/15 01:32:42;;;;;;;4.25;3.90;;;;;;;18.67;50.33;95485.88;6125207;23;20164;-90
2023/06/15 01:35:33;;;;;;;5.43;4.03;;;;;;;18.61;50.70;95482.41;6124553;23;20627;-91
2023/06/15 01:38:09;;;;;;;3.80;3.50;;;;;;;18.67;49.90;95489.28;6124014;23;20171;-91
2023/06/15 01:41:00;;;;;;;4.00;3.67;;;;;;;18.71;50.21;95474.78;6124069;23;20185;-89
2023/06/15 01:43:55;;;;;;;5.93;3.85;;;;;;;18.71;50.19;95479.19;6123561;23;20198;-90
2023/06/15 01:46:26;;;;;;;4.00;3.60;;;;;;;18.73;50.18;95471.94;6124819;23;20203;-90
2023/06/15 01:49:05;;;;;;;4.43;3.45;;;;;;;18.77;49.83;95475.69;6123504;23;20179;-90
2023/06/15 01:51:42;;;;;;;5.78;3.78;;;;;;;18.72;50.35;95470.34;6124227;23;20211;-90
2023/06/15 01:54:19;;;;;;;6.93;3.95;;;;;;;18.67;50.62;95476.25;6124031;23;20202;-90
2023/06/15 01:56:55;;;;;;;4.07;3.67;;;;;;;18.56;50.35;95475.22;6123812;23;20198;-89
2023/06/15 01:59:27;;;;;;;4.43;3.72;;;;;;;18.53;50.38;95477.50;6124087;23;20175;-90
2023/06/15 02:01:53;;;;;;;4.32;3.83;;;;;;;18.51;51.17;95479.53;6124311;23;20171;-90
2023/06/15 02:04:31;;;;;;;4.78;4.10;;;;;;;18.53;50.84;95482.72;6123220;23;20203;-89
2023/06/15 02:06:58;;;;;;;4.47;3.95;;;;;;;18.55;50.35;95485.88;6122913;23;20163;-89
2023/06/15 02:09:30;;;;;;;3.83;3.53;;;;;;;18.57;50.97;95486.44;6123283;23;20171;-89
2023/06/15 02:15:15;;;;;;;4.13;3.75;;;;;;;18.63;51.09;95488.19;6117780;23;20246;-89
2023/06/15 02:18:08;;;;;;;7.03;4.05;;;;;;;18.44;51.12;95490.09;6123332;23;20206;-89
2023/06/15 02:21:04;;;;;;;4.60;3.80;;;;;;;18.43;51.30;95485.91;6122453;23;20495;-89
2023/06/15 02:23:34;;;;;;;4.50;4.10;;;;;;;18.38;51.70;95490.19;6122395;23;20226;-91
2023/06/15 02:26:09;;;;;;;4.28;3.90;;;;;;;18.35;51.64;95490.66;6122963;23;20196;-90
2023/06/15 02:29:09;;;;;;;4.28;3.80;;;;;;;18.34;51.97;95496.88;6122416;23;20163;-89
2023/06/15 02:37:33;;;;;;;5.05;3.90;;;;;;;18.27;52.01;95497.00;6118927;23;20175;-89
2023/06/15 02:40:07;;;;;;;4.30;3.90;;;;;;;18.28;51.97;95498.56;6122507;23;20171;-89
2023/06/15 02:42:55;;;;;;;4.57;3.63;;;;;;;18.27;52.28;95492.59;6122054;23;20254;-91
2023/06/15 02:45:40;;;;;;;9.57;3.85;;;;;;;18.38;52.17;95492.81;6122546;23;20731;-91
2023/06/15 02:48:30;;;;;;;4.15;3.60;;;;;;;18.37;52.07;95497.22;6124457;23;20175;-90
2023/06/15 02:51:13;;;;;;;4.22;3.83;;;;;;;18.50;51.76;95498.81;6123868;23;20555;-89
2023/06/15 02:53:59;;;;;;;;;;;;;;;;;;;;;
2023/06/15 03:02:31;;;;;;;5.40;4.28;;;;;;;18.58;51.57;95501.88;6121728;23;20210;-89
2023/06/15 03:08:00;;;;;;;5.55;4.22;;;;;;;18.51;52.16;95508.22;6121518;23;20199;-89
2023/06/15 03:10:53;;;;;;;4.68;4.28;;;;;;;18.44;51.61;95505.75;6123619;23;20171;-90
2023/06/15 03:13:37;;;;;;;4.32;3.92;;;;;;;18.36;52.33;95508.66;6123948;23;20605;-88
2023/06/15 03:16:15;;;;;;;4.53;3.97;;;;;;;18.12;52.63;95500.03;6123383;23;20172;-91
2023/06/15 03:18:53;;;;;;;4.35;3.95;;;;;;;17.86;53.27;95510.91;6124505;23;20498;-90
2023/06/15 03:21:24;;;;;;;4.90;4.03;;;;;;;17.72;53.43;95510.28;6123663;23;20279;-91
2023/06/15 03:23:52;;;;;;;4.78;4.38;;;;;;;17.60;54.00;95518.03;6123959;23;20195;-89
2023/06/15 03:26:23;;;;;;;4.15;3.70;;;;;;;17.67;53.57;95517.19;6123865;23;20194;-89
2023/06/15 03:32:01;;;;;;;4.60;4.20;;;;;;;17.60;53.88;95514.63;6120547;23;20175;-89
2023/06/15 03:34:32;;;;;;;6.53;3.97;;;;;;;17.55;54.39;95507.47;6124175;23;20203;-89
2023/06/15 03:37:06;;;;;;;4.32;4.00;;;;;;;17.49;54.56;95520.59;6124373;23;20183;-90
2023/06/15 03:39:47;;;;;;;4.55;4.00;;;;;;;17.46;54.44;95518.44;6124165;23;20158;-89
2023/06/15 03:42:24;;;;;;;4.88;4.38;;;;;;;17.53;54.32;95516.53;6123822;23;20235;-90
2023/06/15 03:44:55;;;;;;;4.97;4.28;;;;;;;17.59;54.52;95518.25;6123303;23;20628;-89
2023/06/15 03:50:38;;;;;;;4.78;4.20;;;;;;;17.53;54.57;95527.72;6122909;23;20589;-89
2023/06/15 03:53:24;;;;;;;4.43;4.03;;;;;;;17.60;54.40;95520.63;6124415;23;20581;-90
2023/06/15 03:56:03;;;;;;;4.88;4.47;;;;;;;17.73;54.06;95522.28;6124535;23;20179;-89
2023/06/15 03:58:34;;;;;;;5.05;4.40;;;;;;;17.85;53.66;95527.53;6124426;23;20167;-89
2023/06/15 04:01:01;;;;;;;5.05;4.50;;;;;;;17.70;54.03;95527.16;6124504;23;20855;-89
2023/06/15 04:03:34;;;;;;;4.60;4.20;;;;;;;17.58;54.60;95524.47;6123775;23;20202;-89
2023/06/15 04:06:01;;;;;;;4.63;3.97;;;;;;;17.63;54.53;95542.03;6122024;23;20196;-86
2023/06/15 04:08:27;;;;;;;4.47;4.07;;;;;;;17.71;54.75;95539.13;6122666;23;20182;-88
2023/06/15 04:10:56;;;;;;;4.93;4.43;;;;;;;17.81;54.41;95537.59;6123201;23;20179;-87
2023/06/15 04:13:23;;;;;;;4.32;4.03;;;;;;;17.81;54.45;95548.03;6123976;23;20278;-89
2023/06/15 04:15:52;;;;;;;4.80;4.40;;;;;;;17.82;54.34;95547.00;6124123;23;20179;-88
2023/06/15 04:18:19;;;;;;;4.38;3.90;;;;;;;17.87;54.01;95552.34;6124316;23;20183;-88
2023/06/15 04:20:45;;;;;;;4.30;3.90;;;;;;;17.93;53.82;95553.25;6123308;23;20178;-87
2023/06/15 04:23:12;;;;;;;7.22;4.40;;;;;;;17.93;54.11;95551.44;6123934;23;20709;-88
2023/06/15 04:25:40;;;;;;;4.57;4.18;;;;;;;17.98;54.00;95557.78;6123329;23;20689;-87
2023/06/15 04:28:10;;;;;;;5.95;4.28;;;;;;;18.05;53.75;95563.72;6124385;23;20175;-86
2023/06/15 04:30:45;;;;;;;6.00;4.38;;;;;;;18.07;53.73;95554.66;6122811;23;20227;-88
2023/06/15 04:33:13;;;;;;;6.40;4.22;;;;;;;17.98;54.35;95563.00;6122712;23;20201;-87
2023/06/15 04:35:41;;;;;;;4.93;4.43;;;;;;;17.96;54.41;95560.63;6123922;23;20195;-88
2023/06/15 04:38:08;;;;;;;4.65;4.25;;;;;;;18.05;54.38;95561.13;6123724;23;20175;-87
2023/06/15 04:40:41;;;;;;;4.65;4.07;;;;;;;18.06;54.45;95560.88;6124339;23;20180;-87
2023/06/15 04:43:10;;;;;;;4.40;4.10;;;;;;;18.08;54.19;95571.09;6123470;23;20199;-87
2023/06/15 04:45:49;;;;;;;5.15;4.15;;;;;;;18.07;54.55;95561.69;6123585;23;20214;-88
2023/06/15 04:51:07;;;;;;;;;;;;;;;;;;;;;
2023/06/15 04:53:37;;;;;;;4.90;4.40;;;;;;;18.22;54.31;95570.66;6122608;23;20749;-89
2023/06/15 04:56:03;;;;;;;5.22;4.70;;;;;;;18.32;54.16;95579.72;6121454;23;20735;-88
2023/06/15 04:58:31;;;;;;;4.82;4.40;;;;;;;18.47;53.46;95578.25;6123066;23;20182;-87
2023/06/15 05:01:00;;;;;;;5.97;4.60;;;;;;;18.53;53.62;95581.78;6122306;23;20180;-88
2023/06/15 05:03:27;;;;;;;4.88;4.38;;;;;;;18.58;52.96;95584.53;6123365;23;20199;-87
2023/06/15 05:05:57;;;;;;;10.80;5.57;;;;;;;18.50;54.29;95587.44;6123224;23;20221;-88
2023/06/15 05:08:27;;;;;;;8.20;4.95;;;;;;;18.62;53.82;95583.88;6121909;23;20226;-91
2023/06/15 05:11:00;;;;;;;6.15;4.35;;;;;;;18.62;55.22;95588.31;6123081;23;20179;-87
2023/06/15 05:13:27;;;;;;;6.45;4.75;;;;;;;18.69;54.62;95591.56;6124045;23;20270;-90
2023/06/15 05:15:54;;;;;;;6.50;5.90;;;;;;;18.63;55.03;95597.72;6122526;23;20195;-89
2023/06/15 05:18:21;;;;;;;11.13;9.02;;;;;;;18.62;55.13;95593.53;6125250;23;20183;-88
2023/06/15 05:20:47;;;;;;;7.28;6.47;;;;;;;18.75;53.94;95598.50;6126737;23;20175;-90
2023/06/15 05:23:14;;;;;;;6.35;5.22;;;;;;;18.82;53.48;95593.97;6126026;23;20192;-92
2023/06/15 05:25:46;;;;;;;6.05;5.10;;;;;;;18.87;53.50;95593.28;6123348;23;20205;-89
2023/06/15 05:28:13;;;;;;;8.40;5.85;;;;;;;18.92;53.19;95594.19;6123362;23;20191;-89
2023/06/15 05:30:40;;;;;;;10.02;8.77;;;;;;;18.94;52.80;95599.97;6122002;23;20191;-88
2023/06/15 05:33:08;;;;;;;7.85;6.70;;;;;;;18.95;52.64;95600.78;6122153;23;20658;-88
2023/06/15 05:35:34;;;;;;;7.40;5.07;;;;;;;19.01;52.75;95591.25;6122103;23;20160;-91
2023/06/15 05:38:01;;;;;;;6.20;5.18;;;;;;;19.10;52.91;95595.88;6120704;23;20262;-88
2023/06/15 05:40:27;;;;;;;7.63;5.00;;;;;;;19.18;52.89;95603.34;6121781;23;20197;-89
2023/06/15 05:42:55;;;;;;;6.82;4.63;;;;;;;19.27;52.68;95609.78;6121447;23;20567;-88
2023/06/15 05:45:25;;;;;;;5.45;4.60;;;;;;;19.32;52.23;95604.69;6122235;23;20175;-89
2023/06/15 05:47:54;;;;;;;6.57;4.70;;;;;;;19.37;51.23;95608.44;6123795;23;20172;-90
2023/06/15 05:50:26;;;;;;;5.00;4.50;;;;;;;19.31;50.08;95610.94;6125579;23;20654;-88
2023/06/15 05:52:55;;;;;;;5.38;4.70;;;;;;;19.31;50.64;95612.75;6124904;23;20211;-88
2023/06/15 05:58:11;;;;;;;6.40;4.60;;;;;;;19.19;51.29;95617.22;6123024;23;20201;-87
2023/06/15 06:00:46;;;;;;;5.15;4.30;;;;;;;19.25;49.88;95621.50;6123747;23;20182;-88
2023/06/15 06:03:13;;;;;;;5.07;4.65;;;;;;;19.26;49.89;95620.47;6125199;23;20238;-89
2023/06/15 06:05:43;;;;;;;5.28;4.78;;;;;;;19.19;50.04;95619.81;6123591;23;20238;-89
2023/06/15 06:08:09;;;;;;;7.25;5.00;;;;;;;19.19;50.02;95620.59;6121263;23;20175;-88
2023/06/15 06:10:36;;;;;;;5.45;4.85;;;;;;;19.29;50.08;95622.63;6120798;23;20678;-89
2023/06/15 06:13:03;;;;;;;5.30;4.80;;;;;;;19.28;50.29;95623.66;6120686;23;20202;-89
2023/06/15 06:15:34;;;;;;;5.30;4.78;;;;;;;19.31;50.17;95633.63;6121658;23;20179;-89
2023/06/15 06:18:04;;;;;;;5.68;5.20;;;;;;;19.33;49.71;95629.78;6122376;23;20183;-88
2023/06/15 06:23:24;;;;;;;5.35;4.85;;;;;;;19.55;49.45;95639.66;6125963;23;20199;-90
2023/06/15 06:25:55;;;;;;;7.95;5.18;;;;;;;19.59;48.98;95643.38;6125845;23;20159;-89
2023/06/15 06:28:22;;;;;;;5.45;4.78;;;;;;;19.60;50.03;95637.94;6123353;23;20242;-89
2023/06/15 06:30:48;;;;;;;6.07;5.20;;;;;;;19.66;49.57;95639.59;6123707;23;20178;-89
2023/06/15 06:33:15;;;;;;;6.35;4.97;;;;;;;19.70;49.63;95644.38;6122828;23;20199;-90
2023/06/15 06:35:43;;;;;;;6.15;5.13;;;;;;;19.83;49.40;95641.47;6122167;23;20178;-89
2023/06/15 06:38:13;;;;;;;6.50;4.70;;;;;;;19.87;49.08;95632.16;6122088;23;20183;-89
2023/06/15 06:40:46;;;;;;;6.25;5.10;;;;;;;19.92;48.74;95638.28;6122570;23;20175;-90
2023/06/15 06:43:12;;;;;;;5.43;5.00;;;;;;;19.96;48.74;95641.22;6122546;23;20254;-91
2023/06/15 06:45:53;;;;;;;5.80;4.68;;;;;;;19.99;49.20;95633.72;6123501;23;20203;-90
2023/06/15 06:48:22;;;;;;;6.20;5.50;;;;;;;20.09;49.13;95627.84;6122259;23;20183;-93
2023/06/15 06:50:49;;;;;;;7.70;4.97;;;;;;;20.21;48.63;95630.41;6122296;23;20191;-90
2023/06/15 06:53:30;;;;;;;6.00;5.13;;;;;;;20.20;48.75;95631.47;6125309;23;20198;-90
2023/06/15 06:55:58;;;;;;;6.05;5.45;;;;;;;20.13;48.48;95636.03;6073518;23;20175;-90
2023/06/15 06:58:25;;;;;;;10.00;4.95;;;;;;;20.18;48.39;95631.69;6123626;23;20234;-89
2023/06/15 07:00:54;;;;;;;5.03;4.63;;;;;;;20.22;49.02;95632.00;6123964;23;20194;-88
2023/06/15 07:03:21;;;;;;;6.05;4.95;;;;;;;20.40;48.59;95629.19;6123284;23;20730;-89
2023/06/15 07:06:04;;;;;;;14.43;12.88;;;;;;;20.32;47.90;95627.75;6126723;23;20183;-88
2023/06/15 07:08:49;;;;;;;;;;;;;;;;;;;;;
2023/06/15 07:11:19;;;;;;;6.20;5.55;;;;;;;20.59;47.70;95632.41;6125979;23;20172;-89
2023/06/15 07:14:09;;;;;;;6.15;5.43;;;;;;;20.69;47.53;95625.50;6120120;23;20208;-90
2023/06/15 07:16:46;;;;;;;6.20;4.75;;;;;;;20.67;47.33;95626.75;6125285;23;20492;-89
2023/06/15 07:19:45;;;;;;;5.75;4.93;;;;;;;20.69;46.94;95625.50;6124916;23;20319;-88
2023/06/15 07:22:34;;;;;;;7.32;5.90;;;;;;;20.94;46.59;95629.53;6088267;23;20570;-89
2023/06/15 07:25:15;;;;;;;7.57;6.90;;;;;;;21.06;46.39;95627.59;6096168;23;20169;-89
2023/06/15 07:28:18;;;;;;;6.72;6.03;;;;;;;21.12;45.83;95625.84;6096210;23;20219;-89
2023/06/15 07:30:56;;;;;;;5.47;4.85;;;;;;;20.91;45.52;95628.19;6088677;23;20183;-88
2023/06/15 07:33:44;;;;;;;5.25;4.75;;;;;;;21.02;45.84;95624.66;6096354;23;20204;-89
2023/06/15 07:36:32;;;;;;;5.70;4.30;;;;;;;21.18;45.43;95627.47;6097461;23;20227;-90
2023/06/15 07:42:06;;;;;;;9.43;4.40;;;;;;;21.11;45.40;95621.63;6090279;23;20247;-89
2023/06/15 07:57:51;;;;;;;4.78;4.10;;;;;;;21.42;45.35;95625.47;6123338;23;20522;-90
2023/06/15 08:06:58;;;;;;;5.80;4.25;;;;;;;22.02;45.20;95625.41;6154763;23;20199;-88
2023/06/15 08:12:28;;;;;;;8.05;4.60;;;;;;;22.26;43.09;95620.66;6151594;23;20174;-89
2023/06/15 08:15:17;;;;;;;6.60;4.22;;;;;;;22.47;43.27;95632.13;6155998;23;20175;-89
2023/06/15 08:17:50;;;;;;;4.93;4.43;;;;;;;22.49;42.76;95630.84;6154820;23;20182;-88
2023/06/15 08:20:26;;;;;;;6.95;4.50;;;;;;;22.38;41.20;95631.78;6155083;23;20234;-89
2023/06/15 08:23:16;;;;;;;5.15;3.63;;;;;;;22.55;41.63;95626.41;6155357;23;20194;-89
2023/06/15 08:25:57;;;;;;;7.10;3.95;;;;;;;22.67;41.70;95627.03;6155044;23;20175;-89
2023/06/15 08:40:40;;;;;;;4.22;3.75;;;;;;;23.42;38.85;95628.56;6119377;23;20210;-89
2023/06/15 08:43:30;;;;;;;5.03;3.70;;;;;;;23.53;38.63;95619.72;6125939;23;20188;-89
2023/06/15 09:00:28;;;;;;;3.83;3.50;;;;;;;24.05;35.67;95632.00;6125062;23;20263;-89
2023/06/15 09:10:48;;;;;;;3.80;3.50;;;;;;;23.95;36.77;95630.09;6155197;23;20178;-88
2023/06/15 09:13:20;;;;;;;5.50;3.30;;;;;;;23.91;36.13;95628.25;6142762;23;20215;-89
2023/06/15 09:16:35;;;;;;;4.88;3.63;;;;;;;24.06;35.82;95623.81;6125582;23;20223;-89
2023/06/15 09:19:10;;;;;;;4.00;3.47;;;;;;;24.28;36.41;95617.56;6125837;23;20887;-89
2023/06/15 09:21:50;;;;;;;3.75;3.45;;;;;;;24.30;36.04;95628.63;6126650;23;20179;-89
2023/06/15 09:24:46;;;;;;;3.67;3.38;;;;;;;24.34;35.58;95622.59;6125347;23;20643;-88
2023/06/15 09:27:35;;;;;;;;;;;;;;;;;;;;;
2023/06/15 09:30:49;;;;;;;4.05;3.63;;;;;;;24.85;35.76;95616.50;6125970;23;20172;-89
2023/06/15 09:36:22;;;;;;;8.00;3.75;;;;;;;24.85;35.50;95609.41;6125212;23;20234;-89
2023/06/15 09:38:55;;;;;;;4.10;3.58;;;;;;;24.87;34.91;95606.50;6125296;23;20170;-88
2023/06/15 09:46:58;;;;;;;3.67;3.30;;;;;;;25.44;34.83;95600.84;6182971;23;20193;-89
2023/06/15 09:49:31;;;;;;;5.85;3.55;;;;;;;25.70;34.18;95602.38;6183321;23;20225;-91
2023/06/15 09:52:01;;;;;;;3.85;3.42;;;;;;;25.59;33.63;95606.09;6182690;23;20173;-91
2023/06/15 09:54:32;;;;;;;3.80;3.50;;;;;;;25.36;33.87;95610.13;6183953;23;20186;-92
2023/06/15 09:57:29;;;;;;;4.00;3.63;;;;;;;25.01;32.74;95616.28;6184058;23;20193;-90
2023/06/15 10:00:29;;;;;;;3.97;3.67;;;;;;;24.86;33.14;95605.72;6181996;23;20185;-91
2023/06/15 10:03:07;;;;;;;8.85;3.13;;;;;;;24.86;33.58;95602.28;6184506;23;20249;-88
2023/06/15 10:05:49;;;;;;;3.90;3.50;;;;;;;25.20;34.05;95605.97;6182138;23;20227;-90
2023/06/15 10:08:19;;;;;;;4.50;3.30;;;;;;;25.45;33.93;95597.94;6181183;23;20217;-89
2023/06/15 10:10:51;;;;;;;3.58;3.17;;;;;;;25.87;32.66;95595.94;6186333;23;20177;-91
2023/06/15 10:13:26;;;;;;;3.83;3.50;;;;;;;26.19;32.05;95601.53;6186796;23;20194;-90
2023/06/15 10:15:58;;;;;;;3.47;3.17;;;;;;;26.27;30.27;95595.69;6190723;23;20238;-91
2023/06/15 10:18:27;;;;;;;3.53;3.10;;;;;;;26.60;31.29;95601.28;6182337;23;20237;-90
2023/06/15 10:20:59;;;;;;;4.72;3.30;;;;;;;26.83;31.67;95598.69;6180233;23;20224;-90
2023/06/15 10:23:27;;;;;;;4.18;3.78;;;;;;;26.86;32.44;95593.91;6181063;23;20190;-90
2023/06/15 10:26:06;;;;;;;10.88;4.50;;;;;;;25.93;34.44;95594.88;6180750;23;20582;-89
2023/06/15 10:28:57;;;;;;;;;;;;;;;;;;;;;
2023/06/15 10:34:35;;;;;;;4.57;4.13;;;;;;;24.51;36.70;95597.84;6193529;23;20225;-90
2023/06/15 10:37:08;;;;;;;4.50;4.05;;;;;;;24.35;37.00;95594.41;6187921;23;20173;-89
2023/06/15 10:39:37;;;;;;;4.80;4.40;;;;;;;24.25;37.00;95595.19;6181857;23;20213;-89
2023/06/15 10:42:08;;;;;;;4.30;4.00;;;;;;;24.66;36.38;95595.97;6179919;23;20170;-88
2023/06/15 10:44:35;;;;;;;4.32;3.95;;;;;;;24.98;35.43;95597.56;6180207;23;20229;-90
2023/06/15 10:47:08;;;;;;;5.45;4.07;;;;;;;25.30;35.42;95600.63;6180033;23;20185;-94
2023/06/15 10:49:48;;;;;;;4.50;4.10;;;;;;;25.85;34.31;95598.06;6179315;23;20513;-91
2023/06/15 10:52:14;;;;;;;7.35;3.42;;;;;;;26.26;34.21;95603.88;6180417;23;20166;-92
2023/06/15 10:54:41;;;;;;;3.95;3.65;;;;;;;26.48;33.26;95597.16;6179266;23;20199;-89
2023/06/15 10:57:08;;;;;;;5.53;4.00;;;;;;;26.48;31.74;95604.28;6179470;23;20185;-90
2023/06/15 10:59:39;;;;;;;4.70;3.63;;;;;;;26.71;31.69;95589.56;6179805;23;20181;-89
2023/06/15 11:02:48;;;;;;;9.55;3.85;;;;;;;26.81;31.65;95589.47;6179963;23;20174;-89
2023/06/15 11:05:19;;;;;;;3.83;3.53;;;;;;;27.08;31.31;95602.97;6179317;23;20630;-88
2023/06/15 11:07:54;;;;;;;3.80;3.50;;;;;;;27.12;30.17;95590.78;6178938;23;20519;-90
2023/06/15 11:10:22;;;;;;;4.38;3.97;;;;;;;27.14;31.09;95582.53;6181389;23;20166;-89
2023/06/15 11:18:06;;;;;;;6.25;3.55;;;;;;;26.36;31.00;95580.84;6152240;23;20569;-90
2023/06/15 11:21:00;;;;;;;4.60;4.10;;;;;;;26.15;31.66;95582.84;6152154;23;20175;-89
2023/06/15 11:23:31;;;;;;;6.43;3.90;;;;;;;25.84;31.94;95578.81;6150643;23;20245;-89
2023/06/15 11:26:09;;;;;;;5.32;3.90;;;;;;;25.63;32.69;95590.53;6152710;23;20179;-90
2023/06/15 11:28:36;;;;;;;5.03;4.57;;;;;;;25.24;32.77;95583.25;6152927;23;20194;-91
2023/06/15 11:31:19;;;;;;;3.75;3.50;;;;;;;24.83;32.33;95579.09;6153081;23;20191;-90
2023/06/15 11:33:47;;;;;;;4.30;3.90;;;;;;;24.72;32.78;95581.78;6152989;23;20195;-90
2023/06/15 11:36:15;;;;;;;3.67;3.38;;;;;;;24.78;32.63;95585.97;6152905;23;20206;-89
2023/06/15 11:38:43;;;;;;;4.20;3.78;;;;;;;24.77;33.29;95583.63;6151524;23;20179;-90
2023/06/15 11:41:11;;;;;;;7.32;4.28;;;;;;;24.64;34.24;95578.88;6153000;23;20202;-89
2023/06/15 11:43:41;;;;;;;5.97;4.30;;;;;;;24.55;34.27;95585.75;6152642;23;20195;-89
2023/06/15 11:46:11;;;;;;;4.03;3.63;;;;;;;24.52;34.89;95589.69;6152110;23;20171;-90
2023/06/15 11:48:38;;;;;;;4.60;4.10;;;;;;;24.39;35.32;95593.63;6152492;23;20206;-90
2023/06/15 11:51:08;;;;;;;4.22;3.90;;;;;;;24.32;34.84;95593.09;6152729;23;20198;-89
2023/06/15 11:53:39;;;;;;;5.82;3.88;;;;;;;24.31;35.08;95596.00;6152016;23;20274;-91
2023/06/15 11:56:08;;;;;;;4.57;3.50;;;;;;;24.23;34.51;95593.88;6152442;23;20160;-90
2023/06/15 11:58:35;;;;;;;4.18;3.78;;;;;;;24.22;35.56;95590.44;6151824;23;20205;-90
2023/06/15 12:01:03;;;;;;;6.28;3.65;;;;;;;24.13;35.98;95596.47;6152064;23;20175;-89
2023/06/15 12:03:36;;;;;;;3.67;3.38;;;;;;;24.13;36.57;95591.22;6151943;23;20596;-89
2023/06/15 12:06:02;;;;;;;3.85;3.28;;;;;;;24.02;36.80;95588.56;6151568;23;20263;-90
2023/06/15 12:08:29;;;;;;;4.00;3.55;;;;;;;23.93;37.19;95591.97;6151206;23;20277;-89
2023/06/15 12:10:57;;;;;;;3.25;2.95;;;;;;;24.03;37.28;95594.63;6151003;23;20178;-89
2023/06/15 12:13:29;;;;;;;4.45;3.60;;;;;;;24.06;37.02;95589.63;6151790;23;20199;-89
2023/06/15 12:15:56;;;;;;;6.00;3.80;;;;;;;24.13;36.53;95584.09;6151462;23;20166;-89
2023/06/15 12:18:22;;;;;;;3.63;3.33;;;;;;;24.18;36.68;95589.38;6151272;23;20163;-91
2023/06/15 12:20:50;;;;;;;4.30;3.50;;;;;;;24.36;37.00;95588.91;6151326;23;20186;-90
2023/06/15 12:23:27;;;;;;;3.80;3.50;;;;;;;24.45;36.37;95584.66;6150992;23;20197;-89
2023/06/15 12:25:55;;;;;;;4.90;3.67;;;;;;;24.70;36.24;95583.88;6150514;23;20233;-89
2023/06/15 12:28:27;;;;;;;5.43;3.33;;;;;;;25.13;35.53;95584.34;6151518;23;20199;-89
2023/06/15 12:31:06;;;;;;;3.38;3.08;;;;;;;25.66;34.54;95579.44;6151405;23;20175;-89
2023/06/15 12:33:38;;;;;;;4.10;3.30;;;;;;;25.84;33.77;95573.53;6151465;23;20199;-88
2023/06/15 12:36:10;;;;;;;3.55;3.25;;;;;;;25.70;32.83;95575.19;6151474;23;20229;-89
2023/06/15 12:38:37;;;;;;;4.47;3.75;;;;;;;25.78;32.61;95572.78;6151399;23;20230;-88
2023/06/15 12:41:04;;;;;;;3.60;3.30;;;;;;;25.61;33.22;95576.78;6150884;23;20198;-88
2023/06/15 12:43:45;;;;;;;3.65;3.35;;;;;;;25.54;33.79;95571.03;6150906;23;20217;-88
2023/06/15 12:46:38;;;;;;;3.65;3.35;;;;;;;25.35;32.44;95570.84;6151865;23;20213;-89
2023/06/15 12:49:04;;;;;;;6.55;3.20;;;;;;;25.46;32.55;95572.38;6150801;23;20190;-89
2023/06/15 12:52:23;;;;;;;4.90;3.40;;;;;;;25.91;32.02;95562.69;6151018;23;20262;-89
2023/06/15 12:55:27;;;;;;;3.55;3.25;;;;;;;26.43;30.59;95557.56;6114077;23;20201;-89
2023/06/15 12:57:53;;;;;;;3.70;3.30;;;;;;;26.66;29.46;95561.34;6060329;23;20157;-88
2023/06/15 13:00:24;;;;;;;3.35;2.97;;;;;;;26.75;29.96;95558.88;6060973;23;20176;-88
2023/06/15 13:02:51;;;;;;;3.13;2.92;;;;;;;26.84;29.77;95562.50;6103973;23;20241;-89
2023/06/15 13:05:18;;;;;;;3.15;2.85;;;;;;;26.92;29.01;95558.47;6153298;23;20183;-89
2023/06/15 13:07:46;;;;;;;4.35;2.85;;;;;;;26.92;28.47;95553.97;6150999;23;20541;-91
2023/06/15 13:10:13;;;;;;;3.85;3.10;;;;;;;26.62;29.62;95554.25;6151966;23;20166;-90
2023/06/15 13:12:40;;;;;;;3.40;3.10;;;;;;;26.14;29.30;95549.59;6151348;23;20198;-89
2023/06/15 13:15:07;;;;;;;3.60;3.30;;;;;;;25.88;30.02;95550.03;6151611;23;20179;-90
2023/06/15 13:17:36;;;;;;;5.47;3.30;;;;;;;25.68;30.65;95548.31;6151684;23;20187;-89
2023/06/15 13:20:04;;;;;;;3.72;3.40;;;;;;;25.66;30.58;95548.56;6151135;23;20250;-90
2023/06/15 13:22:31;;;;;;;4.43;2.83;;;;;;;25.62;31.10;95542.25;6150705;23;20183;-90
2023/06/15 13:25:00;;;;;;;3.17;2.97;;;;;;;25.63;30.67;95538.56;6150537;23;20179;-90
2023/06/15 13:27:27;;;;;;;3.75;3.28;;;;;;;25.42;29.87;95540.47;6151342;23;20522;-91
2023/06/15 13:29:56;;;;;;;3.70;3.10;;;;;;;25.67;30.28;95544.09;6149987;23;20206;-90
2023/06/15 13:32:27;;;;;;;4.10;2.80;;;;;;;25.97;29.79;95541.28;6150682;23;20174;-89
2023/06/15 13:34:58;;;;;;;6.00;3.25;;;;;;;26.28;30.47;95539.19;6150815;23;20854;-88
2023/06/15 13:37:29;;;;;;;4.20;3.10;;;;;;;26.63;30.26;95537.31;6150538;23;20701;-89
2023/06/15 13:40:00;;;;;;;6.30;3.40;;;;;;;26.94;30.00;95541.25;6150003;23;20625;-90
2023/06/15 13:42:51;;;;;;;3.60;3.30;;;;;;;26.81;29.60;95540.06;6151103;23;20526;-91
2023/06/15 13:45:26;;;;;;;3.58;3.25;;;;;;;26.62;29.61;95533.09;6150932;23;20583;-89
2023/06/15 13:48:17;;;;;;;4.15;3.75;;;;;;;26.80;29.51;95535.84;6149212;23;20177;-90
2023/06/15 13:51:07;;;;;;;4.82;3.20;;;;;;;26.70;29.95;95533.31;6150161;23;20250;-92
2023/06/15 13:53:42;;;;;;;4.68;3.40;;;;;;;26.40;30.31;95521.16;6150568;23;20269;-89
2023/06/15 13:56:15;;;;;;;3.72;3.42;;;;;;;26.36;30.85;95529.94;6151006;23;20475;-89
2023/06/15 13:58:42;;;;;;;3.97;3.42;;;;;;;26.29;30.95;95535.53;6150870;23;20538;-89
2023/06/15 14:01:19;;;;;;;4.43;3.50;;;;;;;26.39;31.18;95529.34;6150554;23;20198;-90
2023/06/15 14:03:48;;;;;;;3.80;3.30;;;;;;;26.53;30.68;95534.78;6149626;23;20187;-90
2023/06/15 14:06:16;;;;;;;3.42;3.13;;;;;;;26.61;29.34;95534.97;6150467;23;20255;-87
2023/06/15 14:08:50;;;;;;;3.33;3.00;;;;;;;26.51;29.28;95526.34;6150078;23;20227;-86
2023/06/15 14:11:28;;;;;;;4.38;2.88;;;;;;;26.42;32.71;95526.94;6156246;23;20187;-86
2023/06/15 14:13:56;;;;;;;3.30;3.03;;;;;;;26.43;30.32;95525.88;6154301;23;20201;-88
2023/06/15 14:16:23;;;;;;;4.15;3.20;;;;;;;26.32;31.00;95526.25;6150739;23;20225;-89